createdAt,value
2018-09-15T00:00:31.478Z,100557.23
2018-09-15T00:01:06.662Z,100561.18
2018-09-15T00:01:41.937Z,100556.80
2018-09-15T00:02:17.271Z,100557.05
2018-09-15T00:02:53.952Z,100562.48
2018-09-15T00:03:29.132Z,100559.19
2018-09-15T00:04:04.678Z,100554.80
2018-09-15T00:04:39.856Z,100562.34
2018-09-15T00:05:15.527Z,100556.55
2018-09-15T00:05:51.061Z,100565.98
2018-09-15T00:06:26.309Z,100564.92
2018-09-15T00:07:01.508Z,100568.20
2018-09-15T00:07:36.785Z,100568.66
2018-09-15T00:08:12.718Z,100565.94
2018-09-15T00:08:47.976Z,100568.66
2018-09-15T00:09:23.388Z,100572.36
2018-09-15T00:09:58.592Z,100570.89
2018-09-15T00:10:33.781Z,100572.58
2018-09-15T00:11:09.163Z,100569.99
2018-09-15T00:11:44.474Z,100575.20
2018-09-15T00:12:19.879Z,100573.59
2018-09-15T00:12:55.091Z,100577.23
2018-09-15T00:13:30.652Z,100576.48
2018-09-15T00:14:05.807Z,100575.25
2018-09-15T00:14:41.043Z,100569.73
2018-09-15T00:15:16.633Z,100577.32
2018-09-15T00:15:52.026Z,100573.84
2018-09-15T00:16:27.191Z,100572.91
2018-09-15T00:17:02.496Z,100575.52
2018-09-15T00:17:38.449Z,100573.84
2018-09-15T00:18:15.951Z,100574.95
2018-09-15T00:18:51.406Z,100576.15
2018-09-15T00:19:26.618Z,100576.72
2018-09-15T00:20:01.824Z,100571.69
2018-09-15T00:20:37.070Z,100571.03
2018-09-15T00:21:12.443Z,100578.41
2018-09-15T00:21:47.784Z,100579.69
2018-09-15T00:22:23.032Z,100580.69
2018-09-15T00:22:58.235Z,100586.41
2018-09-15T00:23:33.403Z,100581.27
2018-09-15T00:24:08.845Z,100584.80
2018-09-15T00:24:44.393Z,100582.73
2018-09-15T00:25:19.738Z,100581.12
2018-09-15T00:25:54.905Z,100580.95
2018-09-15T00:26:29.621Z,100574.89
2018-09-15T00:27:04.823Z,100578.05
2018-09-15T00:27:40.064Z,100583.84
2018-09-15T00:28:15.675Z,100577.31
2018-09-15T00:28:50.926Z,100579.55
2018-09-15T00:29:26.160Z,100582.70
2018-09-15T00:30:01.343Z,100578.01
2018-09-15T00:30:36.529Z,100579.13
2018-09-15T00:31:12.135Z,100582.96
2018-09-15T00:31:47.870Z,100575.59
2018-09-15T00:32:23.111Z,100579.13
2018-09-15T00:32:58.485Z,100581.35
2018-09-15T00:33:33.675Z,100585.31
2018-09-15T00:34:08.954Z,100578.73
2018-09-15T00:34:44.416Z,100579.71
2018-09-15T00:35:19.899Z,100579.20
2018-09-15T00:35:55.142Z,100583.88
2018-09-15T00:36:29.861Z,100574.17
2018-09-15T00:37:05.043Z,100576.70
2018-09-15T00:37:40.234Z,100575.32
2018-09-15T00:38:15.660Z,100577.47
2018-09-15T00:38:51.069Z,100576.70
2018-09-15T00:39:26.379Z,100576.24
2018-09-15T00:40:01.603Z,100583.23
2018-09-15T00:40:36.775Z,100578.20
2018-09-15T00:41:12.404Z,100576.52
2018-09-15T00:41:47.999Z,100573.05
2018-09-15T00:42:23.459Z,100574.41
2018-09-15T00:42:58.879Z,100568.61
2018-09-15T00:43:34.138Z,100567.84
2018-09-15T00:44:09.470Z,100571.38
2018-09-15T00:44:44.897Z,100570.53
2018-09-15T00:45:20.367Z,100571.38
2018-09-15T00:45:55.554Z,100571.84
2018-09-15T00:46:30.267Z,100570.84
2018-09-15T00:47:05.495Z,100567.84
2018-09-15T00:47:40.694Z,100568.77
2018-09-15T00:48:16.131Z,100573.06
2018-09-15T00:48:51.434Z,100570.27
2018-09-15T00:49:26.654Z,100574.53
2018-09-15T00:50:01.830Z,100570.07
2018-09-15T00:50:37.034Z,100568.30
2018-09-15T00:51:12.706Z,100564.84
2018-09-15T00:51:48.059Z,100567.92
2018-09-15T00:52:23.300Z,100565.50
2018-09-15T00:52:58.573Z,100570.61
2018-09-15T00:53:33.736Z,100571.18
2018-09-15T00:54:08.895Z,100575.83
2018-09-15T00:54:44.432Z,100569.69
2018-09-15T00:55:20.044Z,100569.23
2018-09-15T00:55:55.262Z,100571.91
2018-09-15T00:56:30.418Z,100568.38
2018-09-15T00:57:06.079Z,100569.30
2018-09-15T00:57:41.459Z,100563.23
2018-09-15T00:58:16.735Z,100573.33
2018-09-15T00:58:51.985Z,100569.88
2018-09-15T00:59:27.173Z,100568.73
2018-09-15T01:00:02.383Z,100563.66
2018-09-15T01:00:37.582Z,100574.87
2018-09-15T01:01:12.917Z,100566.27
2018-09-15T01:01:48.194Z,100568.07
2018-09-15T01:02:23.489Z,100573.18
2018-09-15T01:02:58.670Z,100563.00
2018-09-15T01:03:33.839Z,100567.38
2018-09-15T01:04:09.015Z,100563.47
2018-09-15T01:04:44.299Z,100567.84
2018-09-15T01:05:19.957Z,100557.86
2018-09-15T01:05:55.179Z,100567.38
2018-09-15T01:06:30.397Z,100565.39
2018-09-15T01:07:05.602Z,100566.80
2018-09-15T01:07:40.814Z,100562.97
2018-09-15T01:08:16.481Z,100566.42
2018-09-15T01:08:51.708Z,100559.66
2018-09-15T01:09:26.885Z,100568.11
2018-09-15T01:10:02.211Z,100563.23
2018-09-15T01:10:37.480Z,100567.27
2018-09-15T01:11:12.791Z,100579.85
2018-09-15T01:11:48.310Z,100565.39
2018-09-15T01:12:23.573Z,100569.99
2018-09-15T01:12:58.785Z,100569.99
2018-09-15T01:13:34.113Z,100568.56
2018-09-15T01:14:09.356Z,100563.04
2018-09-15T01:14:44.997Z,100565.19
2018-09-15T01:15:20.380Z,100568.72
2018-09-15T01:15:55.609Z,100564.88
2018-09-15T01:16:30.791Z,100564.96
2018-09-15T01:17:06.107Z,100564.22
2018-09-15T01:17:41.330Z,100569.52
2018-09-15T01:18:16.649Z,100568.83
2018-09-15T01:18:51.868Z,100570.01
2018-09-15T01:19:27.087Z,100571.11
2018-09-15T01:20:02.306Z,100566.73
2018-09-15T01:20:38.051Z,100571.19
2018-09-15T01:21:13.774Z,100569.65
2018-09-15T01:21:49.303Z,100570.95
2018-09-15T01:22:24.733Z,100574.64
2018-09-15T01:22:59.945Z,100566.05
2018-09-15T01:23:35.114Z,100574.00
2018-09-15T01:24:10.752Z,100571.84
2018-09-15T01:24:46.348Z,100573.61
2018-09-15T01:25:22.224Z,100572.87
2018-09-15T01:25:57.436Z,100578.17
2018-09-15T01:26:32.772Z,100573.67
2018-09-15T01:27:08.386Z,100576.28
2018-09-15T01:27:43.681Z,100577.20
2018-09-15T01:28:19.149Z,100577.66
2018-09-15T01:28:54.317Z,100577.04
2018-09-15T01:29:29.645Z,100579.19
2018-09-15T01:30:04.905Z,100577.83
2018-09-15T01:30:40.071Z,100571.09
2018-09-15T01:31:15.330Z,100574.55
2018-09-15T01:31:50.577Z,100578.47
2018-09-15T01:32:27.485Z,100580.30
2018-09-15T01:33:02.630Z,100579.84
2018-09-15T01:33:37.799Z,100583.76
2018-09-15T01:34:13.386Z,100581.75
2018-09-15T01:34:48.948Z,100584.08
2018-09-15T01:35:24.308Z,100588.60
2018-09-15T01:35:59.482Z,100591.84
2018-09-15T01:36:34.725Z,100597.06
2018-09-15T01:37:09.977Z,100589.38
2018-09-15T01:37:45.349Z,100590.38
2018-09-15T01:38:20.804Z,100589.91
2018-09-15T01:38:56.014Z,100594.39
2018-09-15T01:39:31.186Z,100589.31
2018-09-15T01:40:06.366Z,100593.83
2018-09-15T01:40:41.900Z,100592.53
2018-09-15T01:41:17.247Z,100590.38
2018-09-15T01:41:52.500Z,100586.11
2018-09-15T01:42:27.689Z,100585.94
2018-09-15T01:43:02.889Z,100589.00
2018-09-15T01:43:38.055Z,100587.62
2018-09-15T01:44:13.825Z,100593.83
2018-09-15T01:44:49.347Z,100597.45
2018-09-15T01:45:24.664Z,100586.68
2018-09-15T01:45:59.838Z,100593.66
2018-09-15T01:46:35.069Z,100584.85
2018-09-15T01:47:10.284Z,100592.67
2018-09-15T01:47:45.592Z,100591.51
2018-09-15T01:48:20.850Z,100587.14
2018-09-15T01:48:56.111Z,100592.36
2018-09-15T01:49:31.506Z,100592.74
2018-09-15T01:50:06.734Z,100590.20
2018-09-15T01:50:41.451Z,100589.08
2018-09-15T01:51:16.772Z,100593.73
2018-09-15T01:51:52.095Z,100585.77
2018-09-15T01:52:27.405Z,100593.05
2018-09-15T01:53:02.959Z,100585.70
2018-09-15T01:53:38.114Z,100591.37
2018-09-15T01:54:13.314Z,100593.52
2018-09-15T01:54:48.932Z,100580.94
2018-09-15T01:55:24.641Z,100586.54
2018-09-15T01:55:59.856Z,100584.85
2018-09-15T01:56:35.067Z,100584.46
2018-09-15T01:57:10.262Z,100589.75
2018-09-15T01:57:45.443Z,100588.05
2018-09-15T01:58:21.203Z,100590.38
2018-09-15T01:58:56.815Z,100586.22
2018-09-15T01:59:32.123Z,100596.66
2018-09-15T02:00:07.376Z,100587.31
2018-09-15T02:00:42.741Z,100595.88
2018-09-15T02:01:17.966Z,100596.51
2018-09-15T02:01:53.408Z,100595.27
2018-09-15T02:02:28.682Z,100595.48
2018-09-15T02:03:04.502Z,100600.24
2018-09-15T02:03:39.325Z,100600.70
2018-09-15T02:04:14.511Z,100598.20
2018-09-15T02:04:49.903Z,100596.58
2018-09-15T02:05:25.178Z,100602.31
2018-09-15T02:06:00.715Z,100599.18
2018-09-15T02:06:35.883Z,100602.63
2018-09-15T02:07:11.110Z,100604.00
2018-09-15T02:07:46.415Z,100610.69
2018-09-15T02:08:22.005Z,100608.92
2018-09-15T02:08:57.367Z,100609.67
2018-09-15T02:09:32.635Z,100610.37
2018-09-15T02:10:08.169Z,100606.39
2018-09-15T02:10:43.360Z,100610.76
2018-09-15T02:11:18.782Z,100609.91
2018-09-15T02:11:54.064Z,100608.75
2018-09-15T02:12:29.683Z,100603.70
2018-09-15T02:13:04.864Z,100604.55
2018-09-15T02:13:40.066Z,100606.77
2018-09-15T02:14:15.238Z,100604.16
2018-09-15T02:14:50.964Z,100605.22
2018-09-15T02:15:26.271Z,100613.42
2018-09-15T02:16:01.498Z,100610.20
2018-09-15T02:16:37.062Z,100615.88
2018-09-15T02:17:12.244Z,100620.69
2018-09-15T02:17:47.463Z,100617.78
2018-09-15T02:18:22.934Z,100611.89
2018-09-15T02:18:58.338Z,100621.99
2018-09-15T02:19:33.509Z,100626.42
2018-09-15T02:20:08.643Z,100622.59
2018-09-15T02:20:43.835Z,100623.16
2018-09-15T02:21:19.294Z,100625.67
2018-09-15T02:21:54.622Z,100625.31
2018-09-15T02:22:30.221Z,100629.05
2018-09-15T02:23:05.717Z,100623.45
2018-09-15T02:23:41.109Z,100627.22
2018-09-15T02:24:16.285Z,100625.08
2018-09-15T02:24:51.770Z,100629.52
2018-09-15T02:25:27.301Z,100630.05
2018-09-15T02:26:02.503Z,100631.91
2018-09-15T02:26:37.698Z,100635.89
2018-09-15T02:27:12.861Z,100637.58
2018-09-15T02:27:48.214Z,100631.52
2018-09-15T02:28:23.648Z,100632.59
2018-09-15T02:28:58.969Z,100638.25
2018-09-15T02:29:34.308Z,100635.05
2018-09-15T02:30:09.522Z,100631.60
2018-09-15T02:30:44.698Z,100636.58
2018-09-15T02:31:20.305Z,100640.80
2018-09-15T02:31:55.758Z,100645.88
2018-09-15T02:32:31.115Z,100644.72
2018-09-15T02:33:06.358Z,100642.50
2018-09-15T02:33:41.672Z,100636.19
2018-09-15T02:34:17.278Z,100642.31
2018-09-15T02:34:52.707Z,100644.24
2018-09-15T02:35:28.146Z,100644.17
2018-09-15T02:36:03.595Z,100639.70
2018-09-15T02:36:38.876Z,100641.86
2018-09-15T02:37:14.402Z,100633.50
2018-09-15T02:37:49.823Z,100639.82
2018-09-15T02:38:25.187Z,100638.80
2018-09-15T02:39:00.498Z,100642.50
2018-09-15T02:39:35.691Z,100639.19
2018-09-15T02:40:10.899Z,100635.12
2018-09-15T02:40:46.181Z,100639.09
2018-09-15T02:41:21.590Z,100633.67
2018-09-15T02:41:57.096Z,100640.64
2018-09-15T02:42:32.489Z,100641.25
2018-09-15T02:43:07.658Z,100633.50
2018-09-15T02:43:42.879Z,100637.48
2018-09-15T02:44:18.746Z,100636.80
2018-09-15T02:44:54.165Z,100636.11
2018-09-15T02:45:29.418Z,100641.31
2018-09-15T02:46:04.633Z,100645.00
2018-09-15T02:46:40.204Z,100637.03
2018-09-15T02:47:15.401Z,100641.14
2018-09-15T02:47:50.756Z,100641.83
2018-09-15T02:48:26.112Z,100643.14
2018-09-15T02:49:01.311Z,100640.01
2018-09-15T02:49:36.531Z,100638.22
2018-09-15T02:50:11.731Z,100639.45
2018-09-15T02:50:46.961Z,100643.91
2018-09-15T02:51:22.214Z,100638.13
2018-09-15T02:51:57.439Z,100638.84
2018-09-15T02:52:32.616Z,100639.36
2018-09-15T02:53:07.834Z,100634.84
2018-09-15T02:53:43.532Z,100635.36
2018-09-15T02:54:18.781Z,100635.04
2018-09-15T02:54:54.131Z,100639.50
2018-09-15T02:55:29.787Z,100635.50
2018-09-15T02:56:05.358Z,100638.66
2018-09-15T02:56:40.560Z,100637.03
2018-09-15T02:57:15.795Z,100641.45
2018-09-15T02:57:51.347Z,100643.31
2018-09-15T02:58:26.769Z,100641.16
2018-09-15T02:59:01.997Z,100633.61
2018-09-15T02:59:37.190Z,100637.91
2018-09-15T03:00:12.423Z,100637.91
2018-09-15T03:00:47.747Z,100635.70
2018-09-15T03:01:23.132Z,100637.00
2018-09-15T03:01:58.555Z,100636.61
2018-09-15T03:02:34.279Z,100634.55
2018-09-15T03:03:10.346Z,100640.91
2018-09-15T03:03:45.805Z,100631.50
2018-09-15T03:04:21.330Z,100639.89
2018-09-15T03:04:57.014Z,100635.50
2018-09-15T03:05:32.209Z,100626.75
2018-09-15T03:06:07.394Z,100634.46
2018-09-15T03:06:42.595Z,100639.83
2018-09-15T03:07:17.811Z,100640.22
2018-09-15T03:07:53.366Z,100634.75
2018-09-15T03:08:28.640Z,100640.74
2018-09-15T03:09:04.208Z,100636.97
2018-09-15T03:09:39.391Z,100638.20
2018-09-15T03:10:14.557Z,100637.42
2018-09-15T03:10:50.065Z,100644.48
2018-09-15T03:11:25.594Z,100649.98
2018-09-15T03:12:00.980Z,100642.05
2018-09-15T03:12:36.183Z,100644.13
2018-09-15T03:13:11.399Z,100644.19
2018-09-15T03:13:46.578Z,100645.49
2018-09-15T03:14:21.932Z,100641.52
2018-09-15T03:14:57.257Z,100647.87
2018-09-15T03:15:32.452Z,100651.16
2018-09-15T03:16:07.647Z,100655.52
2018-09-15T03:16:42.864Z,100649.07
2018-09-15T03:17:18.612Z,100652.12
2018-09-15T03:17:53.936Z,100653.04
2018-09-15T03:18:29.342Z,100656.95
2018-09-15T03:19:04.529Z,100645.78
2018-09-15T03:19:39.719Z,100650.37
2018-09-15T03:20:14.911Z,100651.84
2018-09-15T03:20:50.418Z,100651.70
2018-09-15T03:21:25.934Z,100655.77
2018-09-15T03:22:01.417Z,100651.02
2018-09-15T03:22:36.653Z,100659.34
2018-09-15T03:23:11.818Z,100655.89
2018-09-15T03:23:47.071Z,100658.37
2018-09-15T03:24:22.588Z,100657.91
2018-09-15T03:24:57.840Z,100661.20
2018-09-15T03:25:33.037Z,100666.34
2018-09-15T03:26:08.230Z,100658.20
2018-09-15T03:26:43.447Z,100666.86
2018-09-15T03:27:19.034Z,100659.90
2018-09-15T03:27:54.411Z,100660.52
2018-09-15T03:28:29.646Z,100660.19
2018-09-15T03:29:04.827Z,100658.89
2018-09-15T03:29:40.018Z,100662.79
2018-09-15T03:30:15.249Z,100660.97
2018-09-15T03:30:50.908Z,100654.66
2018-09-15T03:31:26.142Z,100659.73
2018-09-15T03:32:01.366Z,100662.95
2018-09-15T03:32:36.745Z,100660.80
2018-09-15T03:33:11.929Z,100658.39
2018-09-15T03:33:47.389Z,100660.92
2018-09-15T03:34:22.878Z,100664.77
2018-09-15T03:34:58.226Z,100659.11
2018-09-15T03:35:33.438Z,100663.53
2018-09-15T03:36:08.632Z,100666.19
2018-09-15T03:36:43.843Z,100665.80
2018-09-15T03:37:19.196Z,100664.31
2018-09-15T03:37:54.688Z,100668.73
2018-09-15T03:38:30.181Z,100665.80
2018-09-15T03:39:07.859Z,100665.34
2018-09-15T03:39:43.090Z,100668.59
2018-09-15T03:40:18.373Z,100667.74
2018-09-15T03:40:53.731Z,100664.23
2018-09-15T03:41:29.175Z,100667.74
2018-09-15T03:42:04.561Z,100675.09
2018-09-15T03:42:39.742Z,100664.52
2018-09-15T03:43:15.045Z,100666.27
2018-09-15T03:43:50.582Z,100670.08
2018-09-15T03:44:26.333Z,100668.72
2018-09-15T03:45:01.602Z,100664.58
2018-09-15T03:45:36.823Z,100665.09
2018-09-15T03:46:12.024Z,100665.61
2018-09-15T03:46:47.601Z,100663.73
2018-09-15T03:47:22.926Z,100667.26
2018-09-15T03:47:58.234Z,100664.66
2018-09-15T03:48:33.406Z,100667.72
2018-09-15T03:49:08.992Z,100662.76
2018-09-15T03:49:44.409Z,100670.08
2018-09-15T03:50:19.973Z,100670.17
2018-09-15T03:50:55.416Z,100663.34
2018-09-15T03:51:30.740Z,100664.70
2018-09-15T03:52:05.962Z,100665.09
2018-09-15T03:52:41.243Z,100669.33
2018-09-15T03:53:16.592Z,100662.09
2018-09-15T03:53:51.867Z,100666.06
2018-09-15T03:54:27.297Z,100660.67
2018-09-15T03:55:02.522Z,100664.42
2018-09-15T03:55:37.702Z,100664.97
2018-09-15T03:56:12.922Z,100664.64
2018-09-15T03:56:48.579Z,100665.16
2018-09-15T03:57:23.840Z,100673.41
2018-09-15T03:57:59.166Z,100669.51
2018-09-15T03:58:34.570Z,100670.12
2018-09-15T03:59:09.779Z,100674.81
2018-09-15T03:59:44.951Z,100673.41
2018-09-15T04:00:20.357Z,100667.81
2018-09-15T04:00:55.935Z,100668.66
2018-09-15T04:01:31.159Z,100675.50
2018-09-15T04:02:06.361Z,100671.27
2018-09-15T04:02:41.595Z,100675.56
2018-09-15T04:03:17.371Z,100672.27
2018-09-15T04:03:52.663Z,100669.91
2018-09-15T04:04:27.934Z,100679.95
2018-09-15T04:05:03.108Z,100671.36
2018-09-15T04:05:38.308Z,100676.69
2018-09-15T04:06:13.522Z,100668.37
2018-09-15T04:06:48.901Z,100670.70
2018-09-15T04:07:24.276Z,100667.45
2018-09-15T04:07:59.551Z,100674.41
2018-09-15T04:08:34.777Z,100672.33
2018-09-15T04:09:11.186Z,100677.92
2018-09-15T04:09:46.387Z,100676.63
2018-09-15T04:10:21.837Z,100676.17
2018-09-15T04:10:57.112Z,100678.44
2018-09-15T04:11:32.349Z,100677.66
2018-09-15T04:12:07.728Z,100673.06
2018-09-15T04:12:43.478Z,100672.45
2018-09-15T04:13:19.156Z,100670.84
2018-09-15T04:13:54.572Z,100671.75
2018-09-15T04:14:29.779Z,100669.09
2018-09-15T04:15:05.385Z,100670.91
2018-09-15T04:15:40.770Z,100673.45
2018-09-15T04:16:15.957Z,100675.72
2018-09-15T04:16:51.405Z,100669.84
2018-09-15T04:17:26.730Z,100671.02
2018-09-15T04:18:02.218Z,100673.30
2018-09-15T04:18:37.842Z,100667.98
2018-09-15T04:19:13.104Z,100677.53
2018-09-15T04:19:48.339Z,100674.87
2018-09-15T04:20:23.684Z,100676.23
2018-09-15T04:20:58.890Z,100674.02
2018-09-15T04:21:34.108Z,100675.96
2018-09-15T04:22:09.278Z,100673.63
2018-09-15T04:22:43.946Z,100675.89
2018-09-15T04:23:19.573Z,100673.69
2018-09-15T04:23:54.839Z,100676.11
2018-09-15T04:24:30.034Z,100678.31
2018-09-15T04:25:05.557Z,100672.60
2018-09-15T04:25:40.882Z,100669.28
2018-09-15T04:26:15.574Z,100678.89
2018-09-15T04:26:50.394Z,100679.34
2018-09-15T04:27:25.326Z,100665.65
2018-09-15T04:28:00.581Z,100673.52
2018-09-15T04:28:35.916Z,100667.80
2018-09-15T04:29:11.271Z,100679.17
2018-09-15T04:29:46.498Z,100677.53
2018-09-15T04:30:21.927Z,100679.05
2018-09-15T04:30:57.369Z,100679.62
2018-09-15T04:31:32.655Z,100675.66
2018-09-15T04:32:07.890Z,100681.92
2018-09-15T04:32:43.245Z,100674.97
2018-09-15T04:33:18.706Z,100680.63
2018-09-15T04:33:54.012Z,100684.52
2018-09-15T04:34:29.364Z,100685.27
2018-09-15T04:35:04.712Z,100680.86
2018-09-15T04:35:40.178Z,100678.14
2018-09-15T04:36:15.725Z,100679.11
2018-09-15T04:36:51.133Z,100676.17
2018-09-15T04:37:26.539Z,100680.98
2018-09-15T04:38:01.770Z,100680.34
2018-09-15T04:38:36.969Z,100683.25
2018-09-15T04:39:12.889Z,100680.74
2018-09-15T04:39:48.074Z,100684.37
2018-09-15T04:40:23.471Z,100686.58
2018-09-15T04:40:58.855Z,100684.64
2018-09-15T04:41:41.289Z,100686.33
2018-09-15T04:42:16.612Z,100691.93
2018-09-15T04:42:52.056Z,100692.11
2018-09-15T04:43:27.405Z,100685.03
2018-09-15T04:44:02.562Z,100695.38
2018-09-15T04:44:37.759Z,100693.34
2018-09-15T04:45:12.989Z,100692.95
2018-09-15T04:45:48.302Z,100697.45
2018-09-15T04:46:23.716Z,100702.38
2018-09-15T04:46:59.055Z,100699.84
2018-09-15T04:47:34.230Z,100702.98
2018-09-15T04:48:09.454Z,100700.44
2018-09-15T04:48:44.637Z,100699.98
2018-09-15T04:49:19.990Z,100700.89
2018-09-15T04:49:55.336Z,100704.00
2018-09-15T04:50:30.616Z,100702.39
2018-09-15T04:51:06.202Z,100702.30
2018-09-15T04:51:41.394Z,100703.55
2018-09-15T04:52:16.584Z,100701.46
2018-09-15T04:52:51.830Z,100700.76
2018-09-15T04:53:27.116Z,100702.52
2018-09-15T04:54:02.428Z,100704.66
2018-09-15T04:54:37.602Z,100704.77
2018-09-15T04:55:12.846Z,100706.07
2018-09-15T04:55:48.125Z,100706.00
2018-09-15T04:56:23.667Z,100708.59
2018-09-15T04:56:58.929Z,100705.09
2018-09-15T04:57:34.155Z,100711.42
2018-09-15T04:58:09.358Z,100706.28
2018-09-15T04:58:44.625Z,100711.53
2018-09-15T04:59:20.162Z,100707.75
2018-09-15T04:59:55.472Z,100703.14
2018-09-15T05:00:30.840Z,100717.23
2018-09-15T05:01:06.468Z,100720.29
2018-09-15T05:01:41.685Z,100716.59
2018-09-15T05:02:16.946Z,100719.13
2018-09-15T05:02:52.399Z,100722.77
2018-09-15T05:03:27.930Z,100725.43
2018-09-15T05:04:03.145Z,100721.08
2018-09-15T05:04:38.341Z,100724.98
2018-09-15T05:05:13.695Z,100728.03
2018-09-15T05:05:49.039Z,100721.02
2018-09-15T05:06:24.788Z,100716.28
2018-09-15T05:07:00.106Z,100724.08
2018-09-15T05:07:35.310Z,100723.28
2018-09-15T05:08:10.529Z,100718.03
2018-09-15T05:08:45.667Z,100718.42
2018-09-15T05:09:21.315Z,100722.98
2018-09-15T05:09:56.679Z,100728.17
2018-09-15T05:10:32.217Z,100726.78
2018-09-15T05:11:07.493Z,100727.78
2018-09-15T05:11:42.963Z,100733.43
2018-09-15T05:12:18.254Z,100726.65
2018-09-15T05:12:53.610Z,100731.45
2018-09-15T05:13:28.509Z,100729.53
2018-09-15T05:14:03.727Z,100727.38
2018-09-15T05:14:38.932Z,100725.30
2018-09-15T05:15:13.550Z,100730.38
2018-09-15T05:15:48.655Z,100732.89
2018-09-15T05:16:24.030Z,100728.42
2018-09-15T05:16:59.533Z,100728.87
2018-09-15T05:17:34.150Z,100732.13
2018-09-15T05:18:09.422Z,100736.17
2018-09-15T05:18:44.597Z,100737.12
2018-09-15T05:19:20.515Z,100741.87
2018-09-15T05:19:55.377Z,100734.92
2018-09-15T05:20:30.608Z,100733.77
2018-09-15T05:21:06.182Z,100737.08
2018-09-15T05:21:41.426Z,100730.04
2018-09-15T05:22:16.719Z,100738.80
2018-09-15T05:22:52.272Z,100737.89
2018-09-15T05:23:27.706Z,100734.98
2018-09-15T05:24:02.394Z,100737.12
2018-09-15T05:24:37.577Z,100738.37
2018-09-15T05:25:12.219Z,100739.27
2018-09-15T05:25:47.492Z,100738.37
2018-09-15T05:26:22.791Z,100743.12
2018-09-15T05:26:58.063Z,100740.18
2018-09-15T05:27:33.323Z,100741.37
2018-09-15T05:28:08.566Z,100739.16
2018-09-15T05:28:43.769Z,100744.16
2018-09-15T05:29:19.254Z,100733.62
2018-09-15T05:29:54.510Z,100743.46
2018-09-15T05:30:29.375Z,100751.17
2018-09-15T05:31:04.662Z,100747.27
2018-09-15T05:31:39.975Z,100745.52
2018-09-15T05:32:15.286Z,100748.66
2018-09-15T05:32:50.886Z,100747.61
2018-09-15T05:33:26.289Z,100744.80
2018-09-15T05:34:01.488Z,100751.51
2018-09-15T05:34:36.891Z,100755.20
2018-09-15T05:35:12.098Z,100752.36
2018-09-15T05:35:47.289Z,100758.41
2018-09-15T05:36:22.760Z,100761.85
2018-09-15T05:36:57.624Z,100760.95
2018-09-15T05:37:32.917Z,100758.30
2018-09-15T05:38:07.776Z,100761.40
2018-09-15T05:38:43.326Z,100765.41
2018-09-15T05:39:18.655Z,100763.72
2018-09-15T05:39:54.007Z,100769.81
2018-09-15T05:40:29.510Z,100765.47
2018-09-15T05:41:04.772Z,100767.30
2018-09-15T05:41:40.002Z,100766.77
2018-09-15T05:42:15.166Z,100765.38
2018-09-15T05:42:50.522Z,100771.12
2018-09-15T05:43:25.835Z,100768.13
2018-09-15T05:44:01.131Z,100772.47
2018-09-15T05:44:36.417Z,100771.12
2018-09-15T05:45:11.607Z,100772.02
2018-09-15T05:45:46.832Z,100772.81
2018-09-15T05:46:22.398Z,100767.98
2018-09-15T05:46:57.702Z,100774.22
2018-09-15T05:47:32.948Z,100776.82
2018-09-15T05:48:08.292Z,100777.42
2018-09-15T05:48:43.500Z,100775.81
2018-09-15T05:49:19.260Z,100775.36
2018-09-15T05:49:54.655Z,100776.66
2018-09-15T05:50:30.428Z,100782.20
2018-09-15T05:51:05.615Z,100777.45
2018-09-15T05:51:40.823Z,100784.00
2018-09-15T05:52:16.026Z,100779.85
2018-09-15T05:52:51.234Z,100787.91
2018-09-15T05:53:26.136Z,100787.56
2018-09-15T05:54:01.394Z,100785.66
2018-09-15T05:54:36.953Z,100785.16
2018-09-15T05:55:12.607Z,100787.70
2018-09-15T05:55:47.934Z,100791.46
2018-09-15T05:56:23.353Z,100783.35
2018-09-15T05:56:59.139Z,100789.00
2018-09-15T05:57:34.334Z,100786.80
2018-09-15T05:58:09.708Z,100791.86
2018-09-15T05:58:44.906Z,100800.05
2018-09-15T05:59:20.385Z,100797.40
2018-09-15T05:59:55.690Z,100797.73
2018-09-15T06:00:31.130Z,100793.50
2018-09-15T06:01:07.226Z,100795.20
2018-09-15T06:01:42.493Z,100793.55
2018-09-15T06:02:17.843Z,100796.50
2018-09-15T06:02:53.637Z,100795.91
2018-09-15T06:03:28.937Z,100793.70
2018-09-15T06:04:04.227Z,100787.48
2018-09-15T06:04:39.454Z,100791.38
2018-09-15T06:05:14.625Z,100788.10
2018-09-15T06:05:50.415Z,100791.44
2018-09-15T06:06:25.931Z,100789.34
2018-09-15T06:07:01.490Z,100793.59
2018-09-15T06:07:36.835Z,100792.09
2018-09-15T06:08:12.293Z,100796.05
2018-09-15T06:08:47.506Z,100793.84
2018-09-15T06:09:22.688Z,100799.78
2018-09-15T06:09:58.152Z,100801.02
2018-09-15T06:10:33.362Z,100796.58
2018-09-15T06:11:08.628Z,100799.58
2018-09-15T06:11:43.860Z,100799.46
2018-09-15T06:12:19.233Z,100797.88
2018-09-15T06:12:54.604Z,100801.41
2018-09-15T06:13:30.025Z,100798.87
2018-09-15T06:14:05.845Z,100800.48
2018-09-15T06:14:41.050Z,100802.77
2018-09-15T06:15:16.290Z,100800.03
2018-09-15T06:15:52.574Z,100805.45
2018-09-15T06:16:27.961Z,100804.16
2018-09-15T06:17:03.300Z,100802.45
2018-09-15T06:17:38.512Z,100803.36
2018-09-15T06:18:13.691Z,100805.56
2018-09-15T06:18:49.339Z,100802.12
2018-09-15T06:19:25.033Z,100807.72
2018-09-15T06:20:00.391Z,100804.27
2018-09-15T06:20:35.630Z,100808.51
2018-09-15T06:21:10.883Z,100806.66
2018-09-15T06:21:46.082Z,100809.27
2018-09-15T06:22:21.412Z,100804.06
2018-09-15T06:22:56.998Z,100809.55
2018-09-15T06:23:32.653Z,100806.50
2018-09-15T06:24:07.904Z,100805.78
2018-09-15T06:24:42.645Z,100807.73
2018-09-15T06:25:18.087Z,100802.86
2018-09-15T06:25:53.825Z,100812.04
2018-09-15T06:26:29.746Z,100808.27
2018-09-15T06:27:05.014Z,100799.16
2018-09-15T06:27:40.237Z,100797.62
2018-09-15T06:28:15.454Z,100798.86
2018-09-15T06:28:50.923Z,100799.26
2018-09-15T06:29:26.484Z,100802.31
2018-09-15T06:30:01.709Z,100804.46
2018-09-15T06:30:36.909Z,100804.97
2018-09-15T06:31:12.094Z,100803.06
2018-09-15T06:31:47.346Z,100809.84
2018-09-15T06:32:22.721Z,100803.43
2018-09-15T06:32:58.092Z,100806.00
2018-09-15T06:33:33.346Z,100808.76
2018-09-15T06:34:08.583Z,100808.54
2018-09-15T06:34:43.390Z,100805.72
2018-09-15T06:35:19.187Z,100806.69
2018-09-15T06:35:54.617Z,100806.38
2018-09-15T06:36:30.069Z,100815.05
2018-09-15T06:37:05.824Z,100802.78
2018-09-15T06:37:41.079Z,100811.08
2018-09-15T06:38:16.254Z,100808.27
2018-09-15T06:38:51.652Z,100805.64
2018-09-15T06:39:27.254Z,100807.19
2018-09-15T06:40:02.666Z,100811.36
2018-09-15T06:40:38.222Z,100809.00
2018-09-15T06:41:13.425Z,100804.77
2018-09-15T06:41:48.712Z,100800.47
2018-09-15T06:42:24.266Z,100804.21
2018-09-15T06:42:59.471Z,100803.45
2018-09-15T06:43:34.641Z,100804.66